| time (UTC) | temp F | wind direction | speed MPH | gust MPH | rain 1hr in | rain 24hr in | rain mn in | humidity % | barometer mb |
| 20260509135502 | 49 | 355 | 7.0 | 10.0 | 0.00 | 0.00 | 0.00 | 66 | 1002.2 |
| 20260509135107 | 48 | 338 | 7.0 | 10.0 | 0.00 | 0.00 | 0.00 | 68 | 1002.1 |
| 20260509134502 | 48 | 360 | 6.0 | 9.0 | 0.00 | 0.00 | 0.00 | 66 | 1002.0 |
| 20260509134001 | 48 | 350 | 7.0 | 10.0 | 0.00 | 0.00 | 0.00 | 67 | 1002.0 |
| 20260509133501 | 47 | 350 | 7.0 | 11.0 | 0.00 | 0.00 | 0.00 | 68 | 1001.9 |
| 20260509133005 | 47 | 355 | 7.0 | 10.0 | 0.00 | 0.00 | 0.00 | 70 | 1001.9 |
| 20260509132502 | 46 | 360 | 7.0 | 10.0 | 0.00 | 0.00 | 0.00 | 72 | 1001.8 |
| 20260509132000 | 45 | 360 | 7.0 | 10.0 | 0.00 | 0.00 | 0.00 | 73 | 1001.8 |
| 20260509131600 | 45 | 360 | 7.0 | 10.0 | 0.00 | 0.00 | 0.00 | 73 | 1001.9 |
| 20260509131100 | 45 | 360 | 7.0 | 10.0 | 0.00 | 0.00 | 0.00 | 73 | 1001.7 |
| 20260509130601 | 44 | 360 | 7.0 | 10.0 | 0.00 | 0.00 | 0.00 | 75 | 1001.6 |
| 20260509125558 | 43 | 360 | 7.0 | 9.0 | 0.00 | 0.00 | 0.00 | 79 | 1001.5 |
| 20260509125200 | 42 | 360 | 7.0 | 10.0 | 0.00 | 0.00 | 0.00 | 80 | 1001.4 |
| 20260509124600 | 41 | 360 | 8.0 | 10.0 | 0.00 | 0.00 | 0.00 | 81 | 1001.4 |
| 20260509124057 | 41 | 360 | 7.0 | 8.0 | 0.00 | 0.00 | 0.00 | 83 | 1001.3 |
| 20260509123557 | 40 | 360 | 6.0 | 8.0 | 0.00 | 0.00 | 0.00 | 83 | 1001.2 |
| 20260509123127 | 40 | 360 | 4.0 | 6.0 | 0.00 | 0.00 | 0.00 | 84 | 1001.4 |
| 20260509122556 | 39 | 360 | 5.0 | 7.0 | 0.00 | 0.00 | 0.00 | 84 | 1001.2 |
| 20260509122056 | 39 | 360 | 5.0 | 7.0 | 0.00 | 0.00 | 0.00 | 82 | 1001.1 |
| 20260509121611 | 39 | 360 | 5.0 | 7.0 | 0.00 | 0.00 | 0.00 | 81 | 1001.1 |
| 20260509121054 | 40 | 360 | 2.0 | 6.0 | 0.00 | 0.00 | 0.00 | 79 | 1000.9 |
| 20260509120554 | 41 | 360 | 3.0 | 8.0 | 0.00 | 0.00 | 0.00 | 80 | 1000.8 |
| 20260509120112 | 40 | 360 | 6.0 | 8.0 | 0.00 | 0.00 | 0.00 | 81 | 1000.6 |
| 20260509115552 | 40 | 360 | 6.0 | 8.0 | 0.00 | 0.00 | 0.00 | 82 | 1000.4 |
| 20260509115052 | 39 | 360 | 7.0 | 9.0 | 0.00 | 0.00 | 0.00 | 84 | 1000.3 |
| 20260509114600 | 39 | 360 | 7.0 | 9.0 | 0.00 | 0.00 | 0.00 | 84 | 1000.2 |
| 20260509114053 | 38 | 360 | 7.0 | 10.0 | 0.00 | 0.00 | 0.00 | 84 | 1000.1 |
| 20260509113555 | 38 | 360 | 7.0 | 10.0 | 0.00 | 0.00 | 0.00 | 84 | 1000.1 |
| 20260509113055 | 37 | 360 | 8.0 | 10.0 | 0.00 | 0.00 | 0.00 | 84 | 1000.1 |
| 20260509112551 | 37 | 360 | 8.0 | 10.0 | 0.00 | 0.00 | 0.00 | 85 | 999.9 |
| 20260509112050 | 37 | 360 | 8.0 | 10.0 | 0.00 | 0.00 | 0.00 | 84 | 999.9 |
| 20260509111602 | 37 | 360 | 7.0 | 9.0 | 0.00 | 0.00 | 0.00 | 84 | 999.8 |
| 20260509111051 | 37 | 360 | 7.0 | 9.0 | 0.00 | 0.00 | 0.00 | 84 | 999.8 |
| 20260509110549 | 37 | 360 | 7.0 | 9.0 | 0.00 | 0.00 | 0.00 | 84 | 999.7 |
| 20260509110048 | 37 | 360 | 7.0 | 9.0 | 0.00 | 0.00 | 0.00 | 84 | 999.5 |
| 20260509105547 | 37 | 360 | 7.0 | 9.0 | 0.00 | 0.00 | 0.00 | 83 | 999.5 |
| 20260509105147 | 38 | 360 | 7.0 | 9.0 | 0.00 | 0.00 | 0.00 | 84 | 999.5 |
| 20260509104548 | 38 | 360 | 7.0 | 9.0 | 0.00 | 0.00 | 0.00 | 83 | 999.3 |
| 20260509104043 | 39 | 360 | 7.0 | 10.0 | 0.00 | 0.00 | 0.00 | 83 | 999.4 |
| 20260509103543 | 39 | 360 | 7.0 | 10.0 | 0.00 | 0.00 | 0.00 | 83 | 999.3 |
| 20260509103051 | 39 | 360 | 8.0 | 10.0 | 0.00 | 0.00 | 0.00 | 83 | 999.1 |
| 20260509102541 | 39 | 360 | 8.0 | 9.0 | 0.00 | 0.00 | 0.00 | 82 | 999.1 |
| 20260509102040 | 40 | 360 | 7.0 | 9.0 | 0.00 | 0.00 | 0.00 | 82 | 999.1 |
| 20260509101608 | 40 | 360 | 7.0 | 10.0 | 0.00 | 0.00 | 0.00 | 81 | 999.0 |
| 20260509101038 | 41 | 360 | 8.0 | 12.0 | 0.00 | 0.00 | 0.00 | 81 | 998.9 |
| 20260509100540 | 41 | 360 | 7.0 | 12.0 | 0.00 | 0.00 | 0.00 | 81 | 998.8 |
| 20260509100041 | 42 | 360 | 9.0 | 12.0 | 0.00 | 0.00 | 0.00 | 81 | 998.7 |
| 20260509095535 | 42 | 360 | 10.0 | 14.0 | 0.00 | 0.00 | 0.00 | 82 | 998.6 |
| 20260509095135 | 42 | 360 | 11.0 | 14.0 | 0.00 | 0.00 | 0.00 | 82 | 998.5 |
| 20260509094539 | 41 | 360 | 10.0 | 13.0 | 0.00 | 0.00 | 0.00 | 83 | 998.5 |
| 20260509094034 | 41 | 360 | 9.0 | 12.0 | 0.00 | 0.00 | 0.00 | 83 | 998.4 |
| 20260509093534 | 41 | 360 | 7.0 | 9.0 | 0.00 | 0.00 | 0.00 | 82 | 998.4 |
| 20260509093032 | 42 | 360 | 7.0 | 9.0 | 0.00 | 0.00 | 0.00 | 81 | 998.3 |
| 20260509092530 | 42 | 360 | 6.0 | 9.0 | 0.00 | 0.00 | 0.00 | 81 | 998.2 |
| 20260509092031 | 43 | 360 | 7.0 | 10.0 | 0.00 | 0.00 | 0.00 | 81 | 998.2 |
| 20260509091537 | 43 | 360 | 7.0 | 10.0 | 0.00 | 0.00 | 0.00 | 81 | 998.1 |
| 20260509091028 | 43 | 360 | 8.0 | 11.0 | 0.00 | 0.00 | 0.00 | 81 | 998.0 |
| 20260509090527 | 43 | 360 | 8.0 | 11.0 | 0.00 | 0.00 | 0.00 | 81 | 997.9 |
| 20260509090026 | 43 | 360 | 8.0 | 10.0 | 0.00 | 0.00 | 0.00 | 81 | 997.8 |
| 20260509085525 | 43 | 360 | 8.0 | 10.0 | 0.00 | 0.00 | 0.00 | 82 | 997.7 |
| 20260509085124 | 43 | 360 | 7.0 | 9.0 | 0.00 | 0.00 | 0.00 | 81 | 997.6 |
| 20260509084524 | 43 | 360 | 7.0 | 9.0 | 0.00 | 0.00 | 0.00 | 81 | 997.5 |
| 20260509084025 | 44 | 360 | 6.0 | 9.0 | 0.00 | 0.00 | 0.00 | 81 | 997.5 |
| 20260509083520 | 44 | 360 | 6.0 | 7.0 | 0.00 | 0.00 | 0.00 | 80 | 997.4 |
| 20260509083020 | 44 | 360 | 5.0 | 7.0 | 0.00 | 0.00 | 0.00 | 79 | 997.2 |
| 20260509082519 | 45 | 360 | 5.0 | 7.0 | 0.00 | 0.00 | 0.00 | 79 | 997.2 |
| 20260509082019 | 45 | 360 | 5.0 | 6.0 | 0.00 | 0.00 | 0.00 | 79 | 997.1 |
| 20260509081525 | 45 | 360 | 5.0 | 7.0 | 0.00 | 0.00 | 0.00 | 79 | 997.1 |
| 20260509081017 | 45 | 360 | 5.0 | 7.0 | 0.00 | 0.00 | 0.00 | 79 | 997.0 |
| 20260509080516 | 45 | 360 | 5.0 | 7.0 | 0.00 | 0.00 | 0.00 | 78 | 997.0 |
| 20260509080017 | 45 | 360 | 5.0 | 7.0 | 0.00 | 0.00 | 0.00 | 79 | 996.9 |
| 20260509075515 | 45 | 360 | 5.0 | 7.0 | 0.00 | 0.00 | 0.00 | 78 | 997.0 |
| 20260509075115 | 46 | 360 | 5.0 | 6.0 | 0.00 | 0.00 | 0.00 | 78 | 996.8 |
| 20260509074519 | 46 | 360 | 5.0 | 6.0 | 0.00 | 0.00 | 0.00 | 78 | 996.7 |
| 20260509074013 | 46 | 360 | 4.0 | 6.0 | 0.00 | 0.00 | 0.00 | 78 | 996.6 |
| 20260509073512 | 47 | 360 | 4.0 | 7.0 | 0.00 | 0.00 | 0.00 | 78 | 996.6 |
| 20260509073012 | 47 | 360 | 5.0 | 7.0 | 0.00 | 0.00 | 0.00 | 78 | 996.5 |
| 20260509072511 | 47 | 360 | 5.0 | 8.0 | 0.00 | 0.00 | 0.00 | 78 | 996.4 |
| 20260509072012 | 47 | 360 | 6.0 | 10.0 | 0.00 | 0.00 | 0.00 | 78 | 996.3 |
| 20260509071509 | 47 | 360 | 6.0 | 10.0 | 0.00 | 0.00 | 0.00 | 78 | 996.2 |
| 20260509071008 | 48 | 360 | 7.0 | 10.0 | 0.00 | 0.00 | 0.00 | 78 | 996.3 |
| 20260509070507 | 48 | 360 | 8.0 | 11.0 | 0.00 | 0.00 | 0.00 | 78 | 996.3 |
| 20260509070010 | 48 | 360 | 8.0 | 11.0 | 0.00 | 0.00 | 0.00 | 77 | 996.2 |
| 20260509065505 | 49 | 360 | 9.0 | 13.0 | 0.00 | 0.00 | 0.00 | 77 | 996.1 |
| 20260509065104 | 49 | 360 | 9.0 | 13.0 | 0.00 | 0.00 | 0.00 | 76 | 996.1 |
| 20260509064504 | 50 | 360 | 8.0 | 13.0 | 0.00 | 0.00 | 0.00 | 76 | 995.9 |
| 20260509064006 | 50 | 360 | 10.0 | 13.0 | 0.00 | 0.00 | 0.00 | 75 | 996.0 |
| 20260509063502 | 50 | 360 | 8.0 | 15.0 | 0.00 | 0.00 | 0.00 | 75 | 996.0 |
| 20260509063002 | 50 | 360 | 8.0 | 15.0 | 0.00 | 0.00 | 0.00 | 74 | 996.0 |
| 20260509062601 | 50 | 360 | 7.0 | 12.0 | 0.00 | 0.00 | 0.00 | 74 | 995.8 |
| 20260509062100 | 50 | 360 | 6.0 | 7.0 | 0.00 | 0.00 | 0.00 | 73 | 995.9 |
| 20260509061601 | 50 | 360 | 6.0 | 7.0 | 0.00 | 0.00 | 0.00 | 72 | 995.8 |
| 20260509061101 | 50 | 360 | 5.0 | 7.0 | 0.00 | 0.00 | 0.00 | 70 | 995.7 |
| 20260509060557 | 51 | 360 | 4.0 | 6.0 | 0.00 | 0.00 | 0.00 | 70 | 995.6 |
| 20260509060055 | 51 | 360 | 1.0 | 4.0 | 0.00 | 0.00 | 0.00 | 69 | 995.4 |
| 20260509055554 | 51 | 360 | 1.0 | 3.0 | 0.00 | 0.00 | 0.00 | 69 | 995.3 |
| 20260509055057 | 51 | 360 | 2.0 | 5.0 | 0.00 | 0.00 | 0.00 | 68 | 995.2 |
| 20260509054052 | 52 | 360 | 2.0 | 6.0 | 0.00 | 0.00 | 0.00 | 68 | 995.0 |
| 20260509053550 | 52 | 360 | 4.0 | 8.0 | 0.00 | 0.00 | 0.00 | 68 | 994.9 |
| 20260509053055 | 52 | 360 | 5.0 | 8.0 | 0.00 | 0.00 | 0.00 | 67 | 994.9 |
| 20260509052551 | 52 | 360 | 5.0 | 9.0 | 0.00 | 0.00 | 0.00 | 67 | 994.8 |
| 20260509052049 | 52 | 360 | 6.0 | 10.0 | 0.00 | 0.00 | 0.00 | 66 | 994.8 |
| 20260509051551 | 52 | 360 | 6.0 | 10.0 | 0.00 | 0.00 | 0.00 | 66 | 994.9 |
| 20260509051049 | 53 | 360 | 7.0 | 10.0 | 0.00 | 0.00 | 0.00 | 65 | 994.9 |
| 20260509050548 | 53 | 360 | 5.0 | 10.0 | 0.00 | 0.00 | 0.00 | 65 | 994.8 |
| 20260509050048 | 53 | 360 | 5.0 | 10.0 | 0.00 | 0.00 | 0.00 | 65 | 994.8 |
| 20260509045547 | 53 | 360 | 4.0 | 9.0 | 0.00 | 0.00 | 0.00 | 65 | 994.9 |
| 20260509045046 | 53 | 360 | 5.0 | 9.0 | 0.00 | 0.00 | 0.00 | 64 | 995.0 |
| 20260509044046 | 53 | 360 | 5.0 | 12.0 | 0.00 | 0.00 | 0.00 | 64 | 994.7 |
| 20260509043548 | 54 | 360 | 7.0 | 12.0 | 0.00 | 0.00 | 0.00 | 63 | 994.5 |
| 20260509043046 | 54 | 360 | 9.0 | 16.0 | 0.00 | 0.00 | 0.00 | 63 | 994.4 |
| 20260509042545 | 54 | 360 | 10.0 | 19.0 | 0.00 | 0.00 | 0.00 | 63 | 994.4 |
| 20260509042045 | 54 | 360 | 12.0 | 19.0 | 0.00 | 0.00 | 0.00 | 63 | 994.2 |
| 20260509041610 | 54 | 360 | 10.0 | 21.0 | 0.00 | 0.00 | 0.00 | 64 | 994.2 |
| 20260509041043 | 54 | 360 | 14.0 | 21.0 | 0.00 | 0.00 | 0.00 | 66 | 994.0 |
| 20260509040543 | 54 | 360 | 11.0 | 20.0 | 0.00 | 0.00 | 0.00 | 67 | 993.9 |
| 20260509040044 | 54 | 360 | 12.0 | 20.0 | 0.00 | 0.00 | 0.00 | 68 | 993.9 |
| 20260509035541 | 54 | 360 | 13.0 | 20.0 | 0.00 | 0.00 | 0.00 | 67 | 994.3 |
| 20260509035040 | 55 | 360 | 13.0 | 20.0 | 0.00 | 0.00 | 0.00 | 66 | 993.9 |
| 20260509034041 | 55 | 25 | 13.0 | 20.0 | 0.00 | 0.00 | 0.00 | 62 | 994.1 |
| 20260509033538 | 56 | 13 | 15.0 | 20.0 | 0.00 | 0.00 | 0.00 | 61 | 994.1 |
| 20260509033038 | 57 | 14 | 12.0 | 16.0 | 0.00 | 0.00 | 0.00 | 60 | 993.9 |
| 20260509032536 | 57 | 29 | 11.0 | 16.0 | 0.00 | 0.00 | 0.00 | 58 | 994.0 |
| 20260509032038 | 57 | 5 | 9.0 | 13.0 | 0.00 | 0.00 | 0.00 | 59 | 994.3 |
| 20260509031537 | 57 | 360 | 7.0 | 11.0 | 0.00 | 0.00 | 0.00 | 59 | 994.2 |
| 20260509031134 | 57 | 360 | 7.0 | 11.0 | 0.00 | 0.00 | 0.00 | 59 | 994.1 |
| 20260509030532 | 57 | 360 | 7.0 | 11.0 | 0.00 | 0.00 | 0.00 | 58 | 994.2 |
| 20260509030034 | 57 | 360 | 9.0 | 15.0 | 0.00 | 0.00 | 0.00 | 58 | 993.9 |
| 20260509025530 | 57 | 360 | 10.0 | 12.0 | 0.00 | 0.00 | 0.00 | 57 | 993.9 |
| 20260509025031 | 57 | 360 | 10.0 | 12.0 | 0.00 | 0.00 | 0.00 | 57 | 993.7 |
| 20260509024030 | 58 | 360 | 8.0 | 12.0 | 0.00 | 0.00 | 0.00 | 57 | 993.5 |
| 20260509023530 | 58 | 360 | 9.0 | 14.0 | 0.00 | 0.00 | 0.00 | 57 | 993.4 |
| 20260509023030 | 58 | 360 | 10.0 | 15.0 | 0.00 | 0.00 | 0.00 | 57 | 993.2 |
| 20260509022528 | 58 | 360 | 12.0 | 15.0 | 0.00 | 0.00 | 0.00 | 56 | 993.2 |
| 20260509022027 | 58 | 5 | 12.0 | 16.0 | 0.00 | 0.00 | 0.00 | 56 | 993.1 |
| 20260509021533 | 59 | 19 | 12.0 | 18.0 | 0.00 | 0.00 | 0.00 | 55 | 993.0 |
| 20260509021024 | 59 | 355 | 13.0 | 18.0 | 0.00 | 0.00 | 0.00 | 54 | 993.1 |
| 20260509020524 | 59 | 10 | 12.0 | 18.0 | 0.00 | 0.00 | 0.00 | 55 | 993.0 |
| 20260509020040 | 59 | 9 | 11.0 | 18.0 | 0.00 | 0.00 | 0.00 | 55 | 992.9 |
| 20260509015523 | 60 | 5 | 11.0 | 19.0 | 0.00 | 0.00 | 0.00 | 55 | 993.1 |
| 20260509015026 | 60 | 351 | 13.0 | 18.0 | 0.00 | 0.00 | 0.00 | 54 | 993.2 |
| 20260509014022 | 60 | 348 | 10.0 | 19.0 | 0.00 | 0.00 | 0.00 | 55 | 993.0 |
| 20260509013522 | 60 | 360 | 12.0 | 19.0 | 0.00 | 0.00 | 0.00 | 55 | 992.9 |
| 20260509013035 | 60 | 355 | 13.0 | 18.0 | 0.00 | 0.00 | 0.00 | 55 | 992.7 |
| 20260509012523 | 60 | 5 | 12.0 | 18.0 | 0.00 | 0.00 | 0.00 | 54 | 992.1 |
| 20260509012018 | 61 | 5 | 13.0 | 18.0 | 0.00 | 0.00 | 0.00 | 52 | 991.8 |
| 20260509011517 | 62 | 5 | 12.0 | 16.0 | 0.00 | 0.00 | 0.00 | 50 | 991.6 |
| 20260509011017 | 63 | 28 | 12.0 | 15.0 | 0.00 | 0.00 | 0.00 | 44 | 991.5 |
| 20260509010517 | 64 | 5 | 9.0 | 12.0 | 0.00 | 0.00 | 0.00 | 41 | 991.3 |
| 20260509010014 | 64 | 360 | 6.0 | 9.0 | 0.00 | 0.00 | 0.00 | 41 | 991.4 |
| 20260509005515 | 64 | 5 | 5.0 | 16.0 | 0.00 | 0.00 | 0.00 | 42 | 991.6 |
| 20260509005113 | 65 | 13 | 9.0 | 16.0 | 0.00 | 0.00 | 0.00 | 44 | 991.7 |
| 20260509004010 | 66 | 338 | 15.0 | 32.0 | 0.00 | 0.00 | 0.00 | 38 | 992.3 |
| 20260509003509 | 67 | 5 | 23.0 | 32.0 | 0.00 | 0.00 | 0.00 | 37 | 992.2 |
| 20260509003008 | 68 | 311 | 13.0 | 19.0 | 0.00 | 0.00 | 0.00 | 31 | 992.1 |
| 20260509002507 | 68 | 318 | 12.0 | 18.0 | 0.00 | 0.00 | 0.00 | 31 | 991.8 |
| 20260509002007 | 68 | 313 | 11.0 | 15.0 | 0.00 | 0.00 | 0.00 | 31 | 991.7 |
| 20260509001507 | 69 | 283 | 8.0 | 11.0 | 0.00 | 0.00 | 0.00 | 31 | 991.6 |
| 20260509001007 | 69 | 302 | 8.0 | 12.0 | 0.00 | 0.00 | 0.00 | 31 | 991.3 |
| 20260509000508 | 69 | 294 | 8.0 | 12.0 | 0.00 | 0.00 | 0.00 | 31 | 991.4 |
| 20260509000006 | 70 | 290 | 8.0 | 14.0 | 0.00 | 0.00 | 0.00 | 30 | 991.5 |
| 20260508235506 | 70 | 269 | 10.0 | 23.0 | 0.00 | 0.00 | 0.00 | 29 | 991.7 |
| 20260508235005 | 72 | 272 | 18.0 | 25.0 | 0.00 | 0.00 | 0.00 | 29 | 991.8 |
| 20260508234004 | 72 | 284 | 14.0 | 21.0 | 0.00 | 0.00 | 0.00 | 29 | 992.1 |
| 20260508233504 | 71 | 294 | 14.0 | 21.0 | 0.00 | 0.00 | 0.00 | 30 | 992.0 |
| 20260508233004 | 70 | 300 | 12.0 | 20.0 | 0.00 | 0.00 | 0.00 | 29 | 992.0 |
| 20260508232503 | 71 | 306 | 10.0 | 18.0 | 0.00 | 0.00 | 0.00 | 29 | 992.1 |
| 20260508232003 | 71 | 305 | 12.0 | 20.0 | 0.00 | 0.00 | 0.00 | 29 | 992.1 |
| 20260508231503 | 71 | 304 | 12.0 | 18.0 | 0.00 | 0.00 | 0.00 | 30 | 992.3 |
| 20260508231001 | 70 | 335 | 9.0 | 15.0 | 0.00 | 0.00 | 0.00 | 31 | 992.5 |
| 20260508230501 | 69 | 327 | 10.0 | 19.0 | 0.00 | 0.00 | 0.00 | 32 | 992.6 |
| 20260508230105 | 69 | 329 | 12.0 | 21.0 | 0.00 | 0.00 | 0.00 | 31 | 992.7 |
| 20260508225559 | 69 | 340 | 16.0 | 21.0 | 0.00 | 0.00 | 0.00 | 31 | 992.8 |
| 20260508225059 | 69 | 329 | 15.0 | 22.0 | 0.00 | 0.00 | 0.00 | 30 | 992.9 |
| 20260508224057 | 70 | 293 | 17.0 | 26.0 | 0.00 | 0.00 | 0.00 | 29 | 993.0 |
| 20260508223601 | 70 | 311 | 20.0 | 29.0 | 0.00 | 0.00 | 0.00 | 28 | 992.9 |
| 20260508223055 | 71 | 300 | 21.0 | 29.0 | 0.00 | 0.00 | 0.00 | 27 | 992.9 |
| 20260508222555 | 71 | 309 | 15.0 | 24.0 | 0.00 | 0.00 | 0.00 | 25 | 993.0 |
| 20260508222053 | 72 | 289 | 12.0 | 23.0 | 0.00 | 0.00 | 0.00 | 25 | 993.0 |
| 20260508221554 | 71 | 264 | 16.0 | 24.0 | 0.00 | 0.00 | 0.00 | 26 | 993.2 |
| 20260508221053 | 72 | 289 | 21.0 | 29.0 | 0.00 | 0.00 | 0.00 | 26 | 993.2 |
| 20260508220553 | 73 | 284 | 21.0 | 32.0 | 0.00 | 0.00 | 0.00 | 26 | 993.3 |
| 20260508220052 | 72 | 296 | 23.0 | 32.0 | 0.00 | 0.00 | 0.00 | 26 | 993.1 |
| 20260508215551 | 72 | 286 | 17.0 | 29.0 | 0.00 | 0.00 | 0.00 | 25 | 993.3 |
| 20260508215054 | 72 | 306 | 17.0 | 29.0 | 0.00 | 0.00 | 0.00 | 25 | 993.4 |
| 20260508214050 | 72 | 315 | 13.0 | 25.0 | 0.00 | 0.00 | 0.00 | 24 | 993.4 |
| 20260508213550 | 72 | 281 | 20.0 | 26.0 | 0.00 | 0.00 | 0.00 | 23 | 993.5 |
| 20260508213049 | 72 | 311 | 17.0 | 29.0 | 0.00 | 0.00 | 0.00 | 23 | 993.6 |
| 20260508212549 | 71 | 279 | 19.0 | 28.0 | 0.00 | 0.00 | 0.00 | 24 | 993.7 |
| 20260508212048 | 71 | 266 | 20.0 | 31.0 | 0.00 | 0.00 | 0.00 | 25 | 993.8 |
| 20260508211547 | 71 | 268 | 22.0 | 31.0 | 0.00 | 0.00 | 0.00 | 24 | 993.8 |
| 20260508211051 | 71 | 283 | 12.0 | 26.0 | 0.00 | 0.00 | 0.00 | 26 | 993.8 |
| 20260508210546 | 72 | 265 | 20.0 | 26.0 | 0.00 | 0.00 | 0.00 | 25 | 994.0 |
| 20260508210047 | 72 | 267 | 15.0 | 28.0 | 0.00 | 0.00 | 0.00 | 25 | 994.0 |
| 20260508205544 | 72 | 269 | 19.0 | 28.0 | 0.00 | 0.00 | 0.00 | 25 | 994.0 |
| 20260508205043 | 71 | 278 | 18.0 | 25.0 | 0.00 | 0.00 | 0.00 | 25 | 994.2 |
| 20260508204043 | 71 | 257 | 20.0 | 25.0 | 0.00 | 0.00 | 0.00 | 26 | 994.3 |
| 20260508203546 | 71 | 277 | 18.0 | 24.0 | 0.00 | 0.00 | 0.00 | 25 | 994.3 |
| 20260508203040 | 70 | 265 | 16.0 | 28.0 | 0.00 | 0.00 | 0.00 | 26 | 994.4 |
| 20260508202538 | 71 | 255 | 18.0 | 28.0 | 0.00 | 0.00 | 0.00 | 26 | 994.4 |
| 20260508202043 | 71 | 271 | 13.0 | 22.0 | 0.00 | 0.00 | 0.00 | 24 | 994.5 |
| 20260508201539 | 69 | 253 | 12.0 | 28.0 | 0.00 | 0.00 | 0.00 | 26 | 994.4 |
| 20260508201038 | 70 | 307 | 18.0 | 28.0 | 0.00 | 0.00 | 0.00 | 25 | 994.4 |
| 20260508200538 | 71 | 275 | 13.0 | 26.0 | 0.00 | 0.00 | 0.00 | 25 | 994.6 |
| 20260508200138 | 72 | 264 | 20.0 | 26.0 | 0.00 | 0.00 | 0.00 | 25 | 994.6 |
| 20260508195539 | 71 | 263 | 19.0 | 28.0 | 0.00 | 0.00 | 0.00 | 24 | 994.7 |
| 20260508195038 | 72 | 248 | 12.0 | 26.0 | 0.00 | 0.00 | 0.00 | 25 | 994.8 |
| 20260508194039 | 72 | 269 | 10.0 | 22.0 | 0.00 | 0.00 | 0.00 | 25 | 994.9 |
| 20260508193535 | 71 | 262 | 12.0 | 24.0 | 0.00 | 0.00 | 0.00 | 26 | 994.9 |
| 20260508193038 | 70 | 232 | 17.0 | 24.0 | 0.00 | 0.00 | 0.00 | 26 | 995.0 |
| 20260508192535 | 71 | 298 | 11.0 | 22.0 | 0.00 | 0.00 | 0.00 | 25 | 995.3 |
| 20260508192034 | 70 | 226 | 11.0 | 21.0 | 0.00 | 0.00 | 0.00 | 26 | 995.2 |
| 20260508191534 | 70 | 293 | 15.0 | 22.0 | 0.00 | 0.00 | 0.00 | 26 | 995.4 |
| 20260508191033 | 70 | 295 | 9.0 | 26.0 | 0.00 | 0.00 | 0.00 | 26 | 995.3 |
| 20260508190534 | 70 | 234 | 20.0 | 26.0 | 0.00 | 0.00 | 0.00 | 26 | 995.6 |
| 20260508190033 | 70 | 232 | 9.0 | 19.0 | 0.00 | 0.00 | 0.00 | 26 | 995.7 |
| 20260508185532 | 70 | 302 | 11.0 | 23.0 | 0.00 | 0.00 | 0.00 | 27 | 995.6 |
| 20260508185036 | 70 | 281 | 13.0 | 23.0 | 0.00 | 0.00 | 0.00 | 26 | 995.7 |
| 20260508184033 | 69 | 292 | 14.0 | 24.0 | 0.00 | 0.00 | 0.00 | 26 | 996.0 |
| 20260508183533 | 69 | 316 | 15.0 | 24.0 | 0.00 | 0.00 | 0.00 | 26 | 996.3 |
| 20260508183032 | 68 | 281 | 10.0 | 21.0 | 0.00 | 0.00 | 0.00 | 26 | 996.2 |
| 20260508182533 | 69 | 277 | 16.0 | 20.0 | 0.00 | 0.00 | 0.00 | 26 | 996.4 |
| 20260508182031 | 69 | 293 | 9.0 | 20.0 | 0.00 | 0.00 | 0.00 | 27 | 996.4 |
| 20260508181539 | 68 | 312 | 11.0 | 21.0 | 0.00 | 0.00 | 0.00 | 28 | 996.4 |
| 20260508181029 | 68 | 262 | 13.0 | 21.0 | 0.00 | 0.00 | 0.00 | 26 | 996.6 |
| 20260508180529 | 68 | 323 | 7.0 | 21.0 | 0.00 | 0.00 | 0.00 | 27 | 996.7 |
| 20260508180033 | 67 | 240 | 12.0 | 22.0 | 0.00 | 0.00 | 0.00 | 27 | 996.8 |
| 20260508175529 | 67 | 279 | 14.0 | 22.0 | 0.00 | 0.00 | 0.00 | 26 | 996.8 |
| 20260508175031 | 68 | 309 | 11.0 | 18.0 | 0.00 | 0.00 | 0.00 | 26 | 996.8 |
| 20260508174029 | 67 | 309 | 7.0 | 18.0 | 0.00 | 0.00 | 0.00 | 28 | 997.0 |
| 20260508173528 | 67 | 265 | 5.0 | 18.0 | 0.00 | 0.00 | 0.00 | 27 | 997.0 |
| 20260508173027 | 67 | 255 | 12.0 | 23.0 | 0.00 | 0.00 | 0.00 | 26 | 997.2 |
| 20260508172529 | 67 | 260 | 10.0 | 21.0 | 0.00 | 0.00 | 0.00 | 27 | 997.1 |
| 20260508172027 | 67 | 261 | 11.0 | 21.0 | 0.00 | 0.00 | 0.00 | 28 | 997.2 |
| 20260508171527 | 67 | 301 | 9.0 | 19.0 | 0.00 | 0.00 | 0.00 | 28 | 997.2 |
| 20260508171027 | 67 | 268 | 13.0 | 19.0 | 0.00 | 0.00 | 0.00 | 29 | 997.3 |
| 20260508170526 | 67 | 302 | 9.0 | 19.0 | 0.00 | 0.00 | 0.00 | 26 | 997.4 |
| 20260508170025 | 66 | 236 | 10.0 | 19.0 | 0.00 | 0.00 | 0.00 | 28 | 997.4 |
| 20260508165526 | 65 | 273 | 7.0 | 16.0 | 0.00 | 0.00 | 0.00 | 29 | 997.4 |
| 20260508165025 | 65 | 319 | 11.0 | 16.0 | 0.00 | 0.00 | 0.00 | 28 | 997.5 |
| 20260508164024 | 66 | 257 | 10.0 | 15.0 | 0.00 | 0.00 | 0.00 | 29 | 997.5 |
| 20260508163523 | 65 | 296 | 8.0 | 18.0 | 0.00 | 0.00 | 0.00 | 31 | 997.6 |
| 20260508163027 | 65 | 360 | 11.0 | 18.0 | 0.00 | 0.00 | 0.00 | 30 | 997.5 |
| 20260508162523 | 65 | 300 | 11.0 | 16.0 | 0.00 | 0.00 | 0.00 | 31 | 997.6 |
| 20260508162027 | 65 | 257 | 9.0 | 15.0 | 0.00 | 0.00 | 0.00 | 31 | 997.6 |
| 20260508161523 | 64 | 298 | 9.0 | 14.0 | 0.00 | 0.00 | 0.00 | 31 | 997.6 |
| 20260508161023 | 64 | 314 | 11.0 | 14.0 | 0.00 | 0.00 | 0.00 | 31 | 997.7 |
| 20260508160525 | 64 | 311 | 9.0 | 14.0 | 0.00 | 0.00 | 0.00 | 31 | 997.9 |
| 20260508160023 | 64 | 305 | 8.0 | 13.0 | 0.00 | 0.00 | 0.00 | 32 | 997.8 |
| 20260508155523 | 64 | 286 | 8.0 | 12.0 | 0.00 | 0.00 | 0.00 | 31 | 997.8 |
| 20260508155023 | 64 | 333 | 6.0 | 10.0 | 0.00 | 0.00 | 0.00 | 31 | 997.8 |
| 20260508154026 | 63 | 295 | 6.0 | 10.0 | 0.00 | 0.00 | 0.00 | 30 | 997.9 |
| 20260508153523 | 63 | 355 | 7.0 | 10.0 | 0.00 | 0.00 | 0.00 | 31 | 997.9 |
| 20260508153024 | 62 | 345 | 6.0 | 10.0 | 0.00 | 0.00 | 0.00 | 32 | 998.0 |
| 20260508152522 | 62 | 320 | 2.0 | 10.0 | 0.00 | 0.00 | 0.00 | 31 | 998.1 |
| 20260508152022 | 62 | 322 | 4.0 | 11.0 | 0.00 | 0.00 | 0.00 | 32 | 998.1 |
| 20260508151522 | 61 | 269 | 5.0 | 11.0 | 0.00 | 0.00 | 0.00 | 32 | 998.2 |
| 20260508151022 | 61 | 339 | 3.0 | 11.0 | 0.00 | 0.00 | 0.00 | 33 | 998.0 |
| 20260508150521 | 60 | 5 | 7.0 | 11.0 | 0.00 | 0.00 | 0.00 | 33 | 998.0 |
| 20260508150025 | 60 | 311 | 9.0 | 12.0 | 0.00 | 0.00 | 0.00 | 34 | 998.1 |
| 20260508145522 | 60 | 299 | 8.0 | 12.0 | 0.00 | 0.00 | 0.00 | 36 | 998.1 |
| 20260508145021 | 60 | 319 | 6.0 | 11.0 | 0.00 | 0.00 | 0.00 | 35 | 998.2 |
| 20260508144022 | 59 | 303 | 7.0 | 11.0 | 0.00 | 0.00 | 0.00 | 35 | 998.1 |
| 20260508143522 | 59 | 294 | 8.0 | 12.0 | 0.00 | 0.00 | 0.00 | 35 | 998.1 |
| 20260508143023 | 58 | 313 | 9.0 | 13.0 | 0.00 | 0.00 | 0.00 | 36 | 998.1 |
| 20260508142521 | 58 | 292 | 9.0 | 13.0 | 0.00 | 0.00 | 0.00 | 38 | 998.2 |
| 20260508142021 | 58 | 273 | 9.0 | 13.0 | 0.00 | 0.00 | 0.00 | 39 | 998.3 |
| 20260508141526 | 57 | 298 | 10.0 | 13.0 | 0.00 | 0.00 | 0.00 | 39 | 998.3 |
| 20260508141020 | 57 | 292 | 10.0 | 14.0 | 0.00 | 0.00 | 0.00 | 41 | 998.3 |
| 20260508140523 | 57 | 286 | 9.0 | 13.0 | 0.00 | 0.00 | 0.00 | 41 | 998.1 |
| 20260508140020 | 56 | 309 | 9.0 | 12.0 | 0.00 | 0.00 | 0.00 | 41 | 998.1 |